sensor_id;sensor_type;location;lat;lon;timestamp;temperature;humidity
42135;DHT22;28312;43.460;11.810;2023-03-14T00:03:48;9.70;64.00
42135;DHT22;28312;43.460;11.810;2023-03-14T00:07:52;9.70;64.10
42135;DHT22;28312;43.460;11.810;2023-03-14T00:11:56;9.70;64.20
42135;DHT22;28312;43.460;11.810;2023-03-14T00:16:11;9.60;64.00
42135;DHT22;28312;43.460;11.810;2023-03-14T00:20:15;9.50;64.40
42135;DHT22;28312;43.460;11.810;2023-03-14T00:24:19;9.60;64.40
42135;DHT22;28312;43.460;11.810;2023-03-14T00:28:22;9.50;64.30
42135;DHT22;28312;43.460;11.810;2023-03-14T00:32:26;9.50;64.20
42135;DHT22;28312;43.460;11.810;2023-03-14T00:36:29;9.50;64.20
42135;DHT22;28312;43.460;11.810;2023-03-14T00:40:33;9.50;64.60
42135;DHT22;28312;43.460;11.810;2023-03-14T00:44:37;9.50;64.50
42135;DHT22;28312;43.460;11.810;2023-03-14T00:48:43;9.50;64.30
42135;DHT22;28312;43.460;11.810;2023-03-14T00:52:47;9.40;64.20
42135;DHT22;28312;43.460;11.810;2023-03-14T00:56:51;9.30;64.20
42135;DHT22;28312;43.460;11.810;2023-03-14T01:00:55;9.20;64.10
42135;DHT22;28312;43.460;11.810;2023-03-14T01:04:58;9.00;64.20
42135;DHT22;28312;43.460;11.810;2023-03-14T01:09:02;8.80;64.30
42135;DHT22;28312;43.460;11.810;2023-03-14T01:13:06;8.60;64.30
42135;DHT22;28312;43.460;11.810;2023-03-14T01:17:11;8.50;64.60
42135;DHT22;28312;43.460;11.810;2023-03-14T01:21:24;8.40;64.50
42135;DHT22;28312;43.460;11.810;2023-03-14T01:25:27;8.20;64.70
42135;DHT22;28312;43.460;11.810;2023-03-14T01:29:31;8.10;64.70
42135;DHT22;28312;43.460;11.810;2023-03-14T01:33:36;7.90;64.70
42135;DHT22;28312;43.460;11.810;2023-03-14T01:37:39;7.90;65.00
42135;DHT22;28312;43.460;11.810;2023-03-14T01:41:49;7.90;65.00
42135;DHT22;28312;43.460;11.810;2023-03-14T01:50:18;7.80;65.10
42135;DHT22;28312;43.460;11.810;2023-03-14T01:54:32;7.90;65.00
42135;DHT22;28312;43.460;11.810;2023-03-14T01:58:37;7.70;64.90
42135;DHT22;28312;43.460;11.810;2023-03-14T02:02:48;7.70;65.00
42135;DHT22;28312;43.460;11.810;2023-03-14T02:07:19;7.70;65.30
42135;DHT22;28312;43.460;11.810;2023-03-14T02:11:33;7.80;65.30
42135;DHT22;28312;43.460;11.810;2023-03-14T02:15:41;7.80;65.00
42135;DHT22;28312;43.460;11.810;2023-03-14T02:24:39;7.70;65.20
42135;DHT22;28312;43.460;11.810;2023-03-14T02:28:46;7.70;65.50
42135;DHT22;28312;43.460;11.810;2023-03-14T02:33:08;7.90;65.90
42135;DHT22;28312;43.460;11.810;2023-03-14T02:37:12;8.10;65.70
42135;DHT22;28312;43.460;11.810;2023-03-14T02:41:18;8.20;65.20
42135;DHT22;28312;43.460;11.810;2023-03-14T02:45:40;8.10;64.90
42135;DHT22;28312;43.460;11.810;2023-03-14T02:49:45;8.00;64.90
42135;DHT22;28312;43.460;11.810;2023-03-14T02:53:49;7.90;64.90
42135;DHT22;28312;43.460;11.810;2023-03-14T02:57:53;7.90;65.20
42135;DHT22;28312;43.460;11.810;2023-03-14T03:01:59;7.90;65.40
42135;DHT22;28312;43.460;11.810;2023-03-14T03:06:04;8.00;65.30
42135;DHT22;28312;43.460;11.810;2023-03-14T03:10:08;8.00;65.40
42135;DHT22;28312;43.460;11.810;2023-03-14T03:14:12;8.30;65.70
42135;DHT22;28312;43.460;11.810;2023-03-14T03:18:16;8.60;65.60
42135;DHT22;28312;43.460;11.810;2023-03-14T03:22:20;9.00;66.00
42135;DHT22;28312;43.460;11.810;2023-03-14T03:26:24;9.30;66.00
42135;DHT22;28312;43.460;11.810;2023-03-14T03:30:27;9.70;65.70
42135;DHT22;28312;43.460;11.810;2023-03-14T03:34:31;9.80;65.30
42135;DHT22;28312;43.460;11.810;2023-03-14T03:38:36;10.00;65.10
42135;DHT22;28312;43.460;11.810;2023-03-14T03:42:40;10.10;65.70
42135;DHT22;28312;43.460;11.810;2023-03-14T03:46:46;10.30;65.80
42135;DHT22;28312;43.460;11.810;2023-03-14T03:50:50;10.50;65.60
42135;DHT22;28312;43.460;11.810;2023-03-14T03:54:57;10.60;65.40
42135;DHT22;28312;43.460;11.810;2023-03-14T03:59:03;10.60;65.30
42135;DHT22;28312;43.460;11.810;2023-03-14T04:03:07;10.60;65.10
42135;DHT22;28312;43.460;11.810;2023-03-14T04:07:11;10.60;65.20
42135;DHT22;28312;43.460;11.810;2023-03-14T04:11:17;10.60;65.40
42135;DHT22;28312;43.460;11.810;2023-03-14T04:15:30;10.80;65.50
42135;DHT22;28312;43.460;11.810;2023-03-14T04:19:37;11.10;65.70
42135;DHT22;28312;43.460;11.810;2023-03-14T04:23:41;11.20;65.40
42135;DHT22;28312;43.460;11.810;2023-03-14T04:27:44;11.30;65.20
42135;DHT22;28312;43.460;11.810;2023-03-14T04:31:55;11.40;65.20
42135;DHT22;28312;43.460;11.810;2023-03-14T04:35:59;11.40;65.10
42135;DHT22;28312;43.460;11.810;2023-03-14T04:40:03;11.40;65.00
42135;DHT22;28312;43.460;11.810;2023-03-14T04:44:09;11.50;65.00
42135;DHT22;28312;43.460;11.810;2023-03-14T04:48:13;11.50;65.00
42135;DHT22;28312;43.460;11.810;2023-03-14T04:52:18;11.50;65.10
42135;DHT22;28312;43.460;11.810;2023-03-14T04:56:22;11.60;65.10
42135;DHT22;28312;43.460;11.810;2023-03-14T05:00:26;11.70;65.30
42135;DHT22;28312;43.460;11.810;2023-03-14T05:04:47;11.70;65.10
42135;DHT22;28312;43.460;11.810;2023-03-14T05:09:17;11.60;65.00
42135;DHT22;28312;43.460;11.810;2023-03-14T05:13:47;11.70;64.90
42135;DHT22;28312;43.460;11.810;2023-03-14T05:17:53;11.50;65.00
42135;DHT22;28312;43.460;11.810;2023-03-14T05:22:24;11.30;65.40
42135;DHT22;28312;43.460;11.810;2023-03-14T05:26:57;11.20;65.70
42135;DHT22;28312;43.460;11.810;2023-03-14T05:31:20;11.20;66.30
42135;DHT22;28312;43.460;11.810;2023-03-14T05:35:52;11.40;66.70
42135;DHT22;28312;43.460;11.810;2023-03-14T05:40:12;11.60;66.50
42135;DHT22;28312;43.460;11.810;2023-03-14T05:44:25;11.70;66.50
42135;DHT22;28312;43.460;11.810;2023-03-14T05:48:43;11.70;66.30
42135;DHT22;28312;43.460;11.810;2023-03-14T05:53:12;11.80;66.30
42135;DHT22;28312;43.460;11.810;2023-03-14T05:57:19;11.80;66.10
42135;DHT22;28312;43.460;11.810;2023-03-14T06:01:39;11.80;66.30
42135;DHT22;28312;43.460;11.810;2023-03-14T06:05:53;11.80;66.40
42135;DHT22;28312;43.460;11.810;2023-03-14T06:09:59;11.90;66.50
42135;DHT22;28312;43.460;11.810;2023-03-14T06:14:03;12.00;66.50
42135;DHT22;28312;43.460;11.810;2023-03-14T06:18:07;12.20;66.60
42135;DHT22;28312;43.460;11.810;2023-03-14T06:22:11;12.40;66.80
42135;DHT22;28312;43.460;11.810;2023-03-14T06:26:15;12.70;67.20
42135;DHT22;28312;43.460;11.810;2023-03-14T06:30:19;13.10;67.50
42135;DHT22;28312;43.460;11.810;2023-03-14T06:34:24;13.60;67.80
42135;DHT22;28312;43.460;11.810;2023-03-14T06:38:28;14.20;67.60
42135;DHT22;28312;43.460;11.810;2023-03-14T06:42:33;14.80;67.70
42135;DHT22;28312;43.460;11.810;2023-03-14T06:46:37;15.20;66.70
42135;DHT22;28312;43.460;11.810;2023-03-14T06:50:42;15.50;66.10
42135;DHT22;28312;43.460;11.810;2023-03-14T06:54:45;15.80;66.10
42135;DHT22;28312;43.460;11.810;2023-03-14T06:58:49;16.20;65.40
42135;DHT22;28312;43.460;11.810;2023-03-14T07:02:58;16.60;65.00
42135;DHT22;28312;43.460;11.810;2023-03-14T07:07:09;16.80;64.10
42135;DHT22;28312;43.460;11.810;2023-03-14T07:11:13;16.60;62.40
42135;DHT22;28312;43.460;11.810;2023-03-14T07:15:17;16.50;63.90
42135;DHT22;28312;43.460;11.810;2023-03-14T07:19:26;16.80;63.50
42135;DHT22;28312;43.460;11.810;2023-03-14T07:23:30;16.50;62.00
42135;DHT22;28312;43.460;11.810;2023-03-14T07:27:34;15.90;62.20
42135;DHT22;28312;43.460;11.810;2023-03-14T07:31:38;15.60;62.80
42135;DHT22;28312;43.460;11.810;2023-03-14T07:35:42;15.50;64.70
42135;DHT22;28312;43.460;11.810;2023-03-14T07:39:45;15.90;65.50
42135;DHT22;28312;43.460;11.810;2023-03-14T07:43:55;16.70;65.30
42135;DHT22;28312;43.460;11.810;2023-03-14T07:47:58;17.30;64.10
42135;DHT22;28312;43.460;11.810;2023-03-14T07:52:05;17.70;63.10
42135;DHT22;28312;43.460;11.810;2023-03-14T07:56:08;17.50;61.70
42135;DHT22;28312;43.460;11.810;2023-03-14T08:00:13;17.10;61.50
42135;DHT22;28312;43.460;11.810;2023-03-14T08:04:20;16.60;61.30
42135;DHT22;28312;43.460;11.810;2023-03-14T08:08:24;16.20;61.80
42135;DHT22;28312;43.460;11.810;2023-03-14T08:12:27;15.80;62.00
42135;DHT22;28312;43.460;11.810;2023-03-14T08:16:30;15.50;61.90
42135;DHT22;28312;43.460;11.810;2023-03-14T08:20:35;15.20;62.10
42135;DHT22;28312;43.460;11.810;2023-03-14T08:24:39;15.00;62.40
42135;DHT22;28312;43.460;11.810;2023-03-14T08:28:44;14.70;62.70
42135;DHT22;28312;43.460;11.810;2023-03-14T08:32:47;14.60;63.10
42135;DHT22;28312;43.460;11.810;2023-03-14T08:36:52;14.50;63.40
42135;DHT22;28312;43.460;11.810;2023-03-14T08:40:57;14.40;63.80
42135;DHT22;28312;43.460;11.810;2023-03-14T08:45:02;14.40;64.10
42135;DHT22;28312;43.460;11.810;2023-03-14T08:49:06;14.30;64.30
42135;DHT22;28312;43.460;11.810;2023-03-14T08:53:09;14.30;64.40
42135;DHT22;28312;43.460;11.810;2023-03-14T08:57:13;14.30;64.60
42135;DHT22;28312;43.460;11.810;2023-03-14T09:01:17;14.30;64.70
42135;DHT22;28312;43.460;11.810;2023-03-14T09:05:22;14.20;64.80
42135;DHT22;28312;43.460;11.810;2023-03-14T09:09:26;14.20;65.10
42135;DHT22;28312;43.460;11.810;2023-03-14T09:13:33;14.00;64.80
42135;DHT22;28312;43.460;11.810;2023-03-14T09:17:37;13.70;65.10
42135;DHT22;28312;43.460;11.810;2023-03-14T09:21:40;13.50;65.60
42135;DHT22;28312;43.460;11.810;2023-03-14T09:25:43;13.30;66.00
42135;DHT22;28312;43.460;11.810;2023-03-14T09:29:48;13.20;66.30
42135;DHT22;28312;43.460;11.810;2023-03-14T09:33:51;13.20;66.60
42135;DHT22;28312;43.460;11.810;2023-03-14T09:37:55;13.20;66.90
42135;DHT22;28312;43.460;11.810;2023-03-14T09:41:59;13.20;67.00
42135;DHT22;28312;43.460;11.810;2023-03-14T09:46:05;13.20;67.20
42135;DHT22;28312;43.460;11.810;2023-03-14T09:50:14;13.30;67.50
42135;DHT22;28312;43.460;11.810;2023-03-14T09:54:43;13.30;67.60
42135;DHT22;28312;43.460;11.810;2023-03-14T09:58:58;13.30;67.70
42135;DHT22;28312;43.460;11.810;2023-03-14T10:03:19;13.30;67.70
42135;DHT22;28312;43.460;11.810;2023-03-14T10:07:31;13.40;67.70
42135;DHT22;28312;43.460;11.810;2023-03-14T10:11:36;13.40;67.80
42135;DHT22;28312;43.460;11.810;2023-03-14T10:15:39;13.40;67.70
42135;DHT22;28312;43.460;11.810;2023-03-14T10:20:26;13.50;67.70
42135;DHT22;28312;43.460;11.810;2023-03-14T10:24:36;13.60;67.60
42135;DHT22;28312;43.460;11.810;2023-03-14T10:28:47;13.60;67.40
42135;DHT22;28312;43.460;11.810;2023-03-14T10:32:51;13.60;67.40
42135;DHT22;28312;43.460;11.810;2023-03-14T10:36:57;13.60;67.30
42135;DHT22;28312;43.460;11.810;2023-03-14T10:41:14;13.60;67.20
42135;DHT22;28312;43.460;11.810;2023-03-14T10:45:32;13.60;67.30
42135;DHT22;28312;43.460;11.810;2023-03-14T10:49:37;13.60;67.20
42135;DHT22;28312;43.460;11.810;2023-03-14T10:54:12;13.70;67.10
42135;DHT22;28312;43.460;11.810;2023-03-14T10:58:26;13.70;67.00
42135;DHT22;28312;43.460;11.810;2023-03-14T11:11:23;13.70;67.00
42135;DHT22;28312;43.460;11.810;2023-03-14T11:15:45;13.70;67.00
42135;DHT22;28312;43.460;11.810;2023-03-14T11:20:17;13.70;67.00
42135;DHT22;28312;43.460;11.810;2023-03-14T11:24:49;13.70;67.00
42135;DHT22;28312;43.460;11.810;2023-03-14T11:29:31;13.50;67.30
42135;DHT22;28312;43.460;11.810;2023-03-14T11:33:45;13.40;67.70
42135;DHT22;28312;43.460;11.810;2023-03-14T11:37:56;13.30;68.40
42135;DHT22;28312;43.460;11.810;2023-03-14T11:42:02;13.20;69.40
42135;DHT22;28312;43.460;11.810;2023-03-14T11:50:28;13.10;70.90
42135;DHT22;28312;43.460;11.810;2023-03-14T11:54:42;13.00;71.50
42135;DHT22;28312;43.460;11.810;2023-03-14T11:58:55;12.90;71.90
42135;DHT22;28312;43.460;11.810;2023-03-14T12:07:43;12.90;72.90
42135;DHT22;28312;43.460;11.810;2023-03-14T12:12:01;12.90;73.30
42135;DHT22;28312;43.460;11.810;2023-03-14T12:16:25;12.80;73.60
42135;DHT22;28312;43.460;11.810;2023-03-14T12:20:29;12.80;74.00
42135;DHT22;28312;43.460;11.810;2023-03-14T12:24:36;12.80;74.40
42135;DHT22;28312;43.460;11.810;2023-03-14T12:29:19;12.80;74.90
42135;DHT22;28312;43.460;11.810;2023-03-14T12:33:30;12.80;75.20
42135;DHT22;28312;43.460;11.810;2023-03-14T12:37:36;12.80;75.50
42135;DHT22;28312;43.460;11.810;2023-03-14T12:41:52;12.80;75.50
42135;DHT22;28312;43.460;11.810;2023-03-14T12:50:27;12.80;76.20
42135;DHT22;28312;43.460;11.810;2023-03-14T13:03:47;12.80;78.50
42135;DHT22;28312;43.460;11.810;2023-03-14T13:12:14;12.90;79.80
42135;DHT22;28312;43.460;11.810;2023-03-14T13:16:21;13.00;80.50
42135;DHT22;28312;43.460;11.810;2023-03-14T13:20:32;13.20;80.90
42135;DHT22;28312;43.460;11.810;2023-03-14T13:24:37;13.20;81.20
42135;DHT22;28312;43.460;11.810;2023-03-14T13:28:41;13.30;81.60
42135;DHT22;28312;43.460;11.810;2023-03-14T13:32:47;13.40;82.00
42135;DHT22;28312;43.460;11.810;2023-03-14T13:36:54;13.50;81.80
42135;DHT22;28312;43.460;11.810;2023-03-14T13:41:04;13.40;81.20
42135;DHT22;28312;43.460;11.810;2023-03-14T13:45:13;13.30;81.10
42135;DHT22;28312;43.460;11.810;2023-03-14T13:49:22;13.20;81.40
42135;DHT22;28312;43.460;11.810;2023-03-14T13:53:26;13.10;82.20
42135;DHT22;28312;43.460;11.810;2023-03-14T13:57:48;13.20;83.50
42135;DHT22;28312;43.460;11.810;2023-03-14T14:01:55;13.70;84.40
42135;DHT22;28312;43.460;11.810;2023-03-14T14:06:00;14.30;84.70
42135;DHT22;28312;43.460;11.810;2023-03-14T14:10:05;15.10;85.30
42135;DHT22;28312;43.460;11.810;2023-03-14T14:14:14;15.70;84.70
42135;DHT22;28312;43.460;11.810;2023-03-14T14:18:21;16.40;84.10
42135;DHT22;28312;43.460;11.810;2023-03-14T14:22:27;16.90;83.40
42135;DHT22;28312;43.460;11.810;2023-03-14T14:26:31;17.20;83.10
42135;DHT22;28312;43.460;11.810;2023-03-14T14:30:35;17.70;83.20
42135;DHT22;28312;43.460;11.810;2023-03-14T14:39:04;18.20;81.30
42135;DHT22;28312;43.460;11.810;2023-03-14T14:43:14;18.20;80.70
42135;DHT22;28312;43.460;11.810;2023-03-14T14:47:22;18.30;79.80
42135;DHT22;28312;43.460;11.810;2023-03-14T14:51:32;18.20;80.00
42135;DHT22;28312;43.460;11.810;2023-03-14T14:55:42;18.10;80.20
42135;DHT22;28312;43.460;11.810;2023-03-14T14:59:48;18.20;81.00
42135;DHT22;28312;43.460;11.810;2023-03-14T15:03:55;18.40;80.60
42135;DHT22;28312;43.460;11.810;2023-03-14T15:07:59;18.40;80.00
42135;DHT22;28312;43.460;11.810;2023-03-14T15:12:03;18.20;79.30
42135;DHT22;28312;43.460;11.810;2023-03-14T15:16:12;17.80;77.60
42135;DHT22;28312;43.460;11.810;2023-03-14T15:20:17;17.20;77.30
42135;DHT22;28312;43.460;11.810;2023-03-14T15:24:22;16.70;77.90
42135;DHT22;28312;43.460;11.810;2023-03-14T15:28:29;16.60;78.40
42135;DHT22;28312;43.460;11.810;2023-03-14T15:32:33;16.50;78.30
42135;DHT22;28312;43.460;11.810;2023-03-14T15:36:37;16.60;78.50
42135;DHT22;28312;43.460;11.810;2023-03-14T15:40:41;16.80;78.60
42135;DHT22;28312;43.460;11.810;2023-03-14T15:44:44;16.90;77.80
42135;DHT22;28312;43.460;11.810;2023-03-14T15:48:49;16.70;77.60
42135;DHT22;28312;43.460;11.810;2023-03-14T15:52:54;16.50;77.40
42135;DHT22;28312;43.460;11.810;2023-03-14T15:56:58;16.30;77.20
42135;DHT22;28312;43.460;11.810;2023-03-14T16:01:03;16.00;77.10
42135;DHT22;28312;43.460;11.810;2023-03-14T16:05:09;15.70;77.20
42135;DHT22;28312;43.460;11.810;2023-03-14T16:09:13;15.50;77.50
42135;DHT22;28312;43.460;11.810;2023-03-14T16:13:17;15.20;77.60
42135;DHT22;28312;43.460;11.810;2023-03-14T16:17:21;15.00;77.50
42135;DHT22;28312;43.460;11.810;2023-03-14T16:21:24;14.80;77.60
42135;DHT22;28312;43.460;11.810;2023-03-14T16:25:27;14.70;77.80
42135;DHT22;28312;43.460;11.810;2023-03-14T16:29:32;14.50;77.90
42135;DHT22;28312;43.460;11.810;2023-03-14T16:33:37;14.30;77.90
42135;DHT22;28312;43.460;11.810;2023-03-14T16:37:41;14.20;78.00
42135;DHT22;28312;43.460;11.810;2023-03-14T16:41:45;14.10;77.70
42135;DHT22;28312;43.460;11.810;2023-03-14T16:45:49;14.00;77.90
42135;DHT22;28312;43.460;11.810;2023-03-14T16:49:53;13.90;78.00
42135;DHT22;28312;43.460;11.810;2023-03-14T16:53:57;13.80;78.00
42135;DHT22;28312;43.460;11.810;2023-03-14T16:58:01;13.70;78.20
42135;DHT22;28312;43.460;11.810;2023-03-14T17:02:07;13.60;78.30
42135;DHT22;28312;43.460;11.810;2023-03-14T17:06:23;13.60;78.40
42135;DHT22;28312;43.460;11.810;2023-03-14T17:10:27;13.50;78.30
42135;DHT22;28312;43.460;11.810;2023-03-14T17:14:32;13.40;78.20
42135;DHT22;28312;43.460;11.810;2023-03-14T17:18:36;13.30;78.20
42135;DHT22;28312;43.460;11.810;2023-03-14T17:22:40;13.20;78.20
42135;DHT22;28312;43.460;11.810;2023-03-14T17:26:43;13.00;78.00
42135;DHT22;28312;43.460;11.810;2023-03-14T17:30:47;12.70;77.80
42135;DHT22;28312;43.460;11.810;2023-03-14T17:34:51;12.50;77.80
42135;DHT22;28312;43.460;11.810;2023-03-14T17:38:55;12.40;77.70
42135;DHT22;28312;43.460;11.810;2023-03-14T17:43:01;12.20;77.50
42135;DHT22;28312;43.460;11.810;2023-03-14T17:47:06;12.10;77.50
42135;DHT22;28312;43.460;11.810;2023-03-14T17:51:10;11.90;77.60
42135;DHT22;28312;43.460;11.810;2023-03-14T17:55:14;11.70;77.60
42135;DHT22;28312;43.460;11.810;2023-03-14T17:59:17;11.50;77.40
42135;DHT22;28312;43.460;11.810;2023-03-14T18:03:21;11.30;77.30
42135;DHT22;28312;43.460;11.810;2023-03-14T18:07:25;11.00;77.40
42135;DHT22;28312;43.460;11.810;2023-03-14T18:11:29;10.90;77.40
42135;DHT22;28312;43.460;11.810;2023-03-14T18:15:32;10.70;77.40
42135;DHT22;28312;43.460;11.810;2023-03-14T18:19:36;10.40;77.60
42135;DHT22;28312;43.460;11.810;2023-03-14T18:23:40;10.30;77.80
42135;DHT22;28312;43.460;11.810;2023-03-14T18:27:44;10.20;78.00
42135;DHT22;28312;43.460;11.810;2023-03-14T18:31:49;10.20;78.30
42135;DHT22;28312;43.460;11.810;2023-03-14T18:35:53;10.20;78.60
42135;DHT22;28312;43.460;11.810;2023-03-14T18:39:57;10.20;79.10
42135;DHT22;28312;43.460;11.810;2023-03-14T18:44:01;10.20;79.40
42135;DHT22;28312;43.460;11.810;2023-03-14T18:48:06;10.20;79.40
42135;DHT22;28312;43.460;11.810;2023-03-14T18:52:10;10.20;79.50
42135;DHT22;28312;43.460;11.810;2023-03-14T18:56:13;10.20;79.60
42135;DHT22;28312;43.460;11.810;2023-03-14T19:00:18;10.20;79.50
42135;DHT22;28312;43.460;11.810;2023-03-14T19:04:22;10.20;79.30
42135;DHT22;28312;43.460;11.810;2023-03-14T19:08:27;10.10;79.10
42135;DHT22;28312;43.460;11.810;2023-03-14T19:12:32;9.90;79.30
42135;DHT22;28312;43.460;11.810;2023-03-14T19:16:35;9.80;79.20
42135;DHT22;28312;43.460;11.810;2023-03-14T19:20:40;9.70;79.30
42135;DHT22;28312;43.460;11.810;2023-03-14T19:24:45;9.50;79.30
42135;DHT22;28312;43.460;11.810;2023-03-14T19:28:49;9.40;79.40
42135;DHT22;28312;43.460;11.810;2023-03-14T19:32:54;9.50;79.50
42135;DHT22;28312;43.460;11.810;2023-03-14T19:36:58;9.50;79.40
42135;DHT22;28312;43.460;11.810;2023-03-14T19:41:02;9.60;79.40
42135;DHT22;28312;43.460;11.810;2023-03-14T19:45:07;9.60;79.50
42135;DHT22;28312;43.460;11.810;2023-03-14T19:49:12;9.60;79.50
42135;DHT22;28312;43.460;11.810;2023-03-14T19:53:17;9.70;79.40
42135;DHT22;28312;43.460;11.810;2023-03-14T19:57:22;9.70;79.30
42135;DHT22;28312;43.460;11.810;2023-03-14T20:01:26;9.80;79.10
42135;DHT22;28312;43.460;11.810;2023-03-14T20:05:30;9.80;79.00
42135;DHT22;28312;43.460;11.810;2023-03-14T20:09:34;9.80;78.80
42135;DHT22;28312;43.460;11.810;2023-03-14T20:13:38;9.80;78.60
42135;DHT22;28312;43.460;11.810;2023-03-14T20:17:44;9.80;78.50
42135;DHT22;28312;43.460;11.810;2023-03-14T20:21:50;9.70;78.40
42135;DHT22;28312;43.460;11.810;2023-03-14T20:25:58;9.70;78.50
42135;DHT22;28312;43.460;11.810;2023-03-14T20:30:04;9.70;78.60
42135;DHT22;28312;43.460;11.810;2023-03-14T20:34:09;9.70;78.70
42135;DHT22;28312;43.460;11.810;2023-03-14T20:38:13;9.70;78.80
42135;DHT22;28312;43.460;11.810;2023-03-14T20:42:17;9.70;78.60
42135;DHT22;28312;43.460;11.810;2023-03-14T20:46:22;9.70;78.60
42135;DHT22;28312;43.460;11.810;2023-03-14T20:50:27;9.70;78.60
42135;DHT22;28312;43.460;11.810;2023-03-14T20:54:32;9.70;78.50
42135;DHT22;28312;43.460;11.810;2023-03-14T20:58:36;9.70;78.50
42135;DHT22;28312;43.460;11.810;2023-03-14T21:02:40;9.70;78.50
42135;DHT22;28312;43.460;11.810;2023-03-14T21:06:44;9.70;78.40
42135;DHT22;28312;43.460;11.810;2023-03-14T21:10:49;9.80;78.50
42135;DHT22;28312;43.460;11.810;2023-03-14T21:14:53;9.80;78.40
42135;DHT22;28312;43.460;11.810;2023-03-14T21:18:57;9.80;78.40
42135;DHT22;28312;43.460;11.810;2023-03-14T21:23:00;9.80;78.40
42135;DHT22;28312;43.460;11.810;2023-03-14T21:27:04;9.80;78.50
42135;DHT22;28312;43.460;11.810;2023-03-14T21:31:08;9.80;78.50
42135;DHT22;28312;43.460;11.810;2023-03-14T21:35:15;9.80;78.50
42135;DHT22;28312;43.460;11.810;2023-03-14T21:39:19;9.90;78.60
42135;DHT22;28312;43.460;11.810;2023-03-14T21:43:24;9.90;78.60
42135;DHT22;28312;43.460;11.810;2023-03-14T21:47:27;10.00;78.50
42135;DHT22;28312;43.460;11.810;2023-03-14T21:51:31;10.00;78.50
42135;DHT22;28312;43.460;11.810;2023-03-14T21:55:41;10.00;78.40
42135;DHT22;28312;43.460;11.810;2023-03-14T21:59:45;10.10;78.40
42135;DHT22;28312;43.460;11.810;2023-03-14T22:03:49;10.10;78.30
42135;DHT22;28312;43.460;11.810;2023-03-14T22:07:53;10.10;78.20
42135;DHT22;28312;43.460;11.810;2023-03-14T22:12:05;10.10;78.10
42135;DHT22;28312;43.460;11.810;2023-03-14T22:16:09;10.10;78.00
42135;DHT22;28312;43.460;11.810;2023-03-14T22:20:13;10.10;77.90
42135;DHT22;28312;43.460;11.810;2023-03-14T22:24:16;9.90;77.70
42135;DHT22;28312;43.460;11.810;2023-03-14T22:28:20;9.90;77.60
42135;DHT22;28312;43.460;11.810;2023-03-14T22:32:24;9.80;77.30
42135;DHT22;28312;43.460;11.810;2023-03-14T22:36:30;9.70;77.00
42135;DHT22;28312;43.460;11.810;2023-03-14T22:40:36;9.60;76.90
42135;DHT22;28312;43.460;11.810;2023-03-14T22:44:40;9.50;76.70
42135;DHT22;28312;43.460;11.810;2023-03-14T22:48:44;9.40;76.60
42135;DHT22;28312;43.460;11.810;2023-03-14T22:52:47;9.30;76.70
42135;DHT22;28312;43.460;11.810;2023-03-14T22:56:51;9.20;76.80
42135;DHT22;28312;43.460;11.810;2023-03-14T23:00:54;9.00;77.10
42135;DHT22;28312;43.460;11.810;2023-03-14T23:04:59;9.00;77.40
42135;DHT22;28312;43.460;11.810;2023-03-14T23:09:03;8.90;77.60
42135;DHT22;28312;43.460;11.810;2023-03-14T23:13:06;9.00;77.70
42135;DHT22;28312;43.460;11.810;2023-03-14T23:17:10;9.00;77.80
42135;DHT22;28312;43.460;11.810;2023-03-14T23:21:16;9.10;77.70
42135;DHT22;28312;43.460;11.810;2023-03-14T23:25:19;9.10;77.60
42135;DHT22;28312;43.460;11.810;2023-03-14T23:29:23;9.20;77.50
42135;DHT22;28312;43.460;11.810;2023-03-14T23:33:27;9.20;77.50
42135;DHT22;28312;43.460;11.810;2023-03-14T23:37:31;9.20;77.30
42135;DHT22;28312;43.460;11.810;2023-03-14T23:41:35;9.20;77.20
42135;DHT22;28312;43.460;11.810;2023-03-14T23:45:39;9.20;77.20
42135;DHT22;28312;43.460;11.810;2023-03-14T23:49:42;9.10;77.20
42135;DHT22;28312;43.460;11.810;2023-03-14T23:53:46;9.10;77.20
42135;DHT22;28312;43.460;11.810;2023-03-14T23:57:49;9.10;77.30
